Wadmalaw Island, SC

3:45 PM EDT on May 25, 2015 (GMT -0400)
Bears Bluff | | Change Station
CLOSE
Current Station
Personal Weather Station
Location: Wadmalaw Island, SC
Elevation: 18 ft
Nearby Weather Stations

Elev 18 ft 32.65 °N, 80.24 °W | Updated 13 seconds ago

Overcast
Overcast
80.7 °F
Feels Like 84 °F
N
5.0
Wind Variable Wind from ENE
Gusts 0.0 mph

Today
High -- | Low -- °F
--% Chance of Precip.
Yesterday
High -- | Low -- °F
Precip. -- in
6:16 AM 8:19 PM
Waxing Crescent, 51% visible
Pressure 30.29 in
Visibility 10.0 miles
Clouds Few 3500 ft
Mostly Cloudy 6000 ft
Heat Index 84 °F
Dew Point 70 °F
Humidity 71%
Rainfall 0.00 in
Snow Depth Not available.
UV 6 out of 12
Pollen 6.30 out of 12
Air Quality Not available.
Flu Activity Local Activity
METAR KJZI 251935Z AUTO 09009G15KT 10SM FEW035 BKN060 27/20 A3029 RMK A02 P000

More Conditions Fewer Conditions

Pressure 30.29 in
Visibility 10.0 miles
Clouds Few 3500 ft
Mostly Cloudy 6000 ft
Heat Index 84 °F
Dew Point 70 °F
Humidity 71%
Rainfall 0.00 in
Snow Depth Not available.
UV 6 out of 12
Pollen 6.30 out of 12
Air Quality Not available.
Flu Activity Local Activity
METAR KJZI 251935Z AUTO 09009G15KT 10SM FEW035 BKN060 27/20 A3029 RMK A02 P000

More Conditions Fewer Conditions

10-Day Weather Forecast

Almanac

Astronomy

May. 25, 2015 Rise Set
Actual Time
Civil Twilight
Nautical Twilight
Astronomical Twilight
Moon
Length of Visible Light
Length of Day
Tomorrow will be .
, % of the Moon is Illuminated

Today's Extremes

State Highs State Lows

Community

WunderPhotos

Upload Photos

1,824,102 photos uploaded!

WunderBlogs® & News

Nearby

Air Quality

  Air Quality AQ Index Pollutant
Not available.

Snow Depth

Station Depth Elevation

Earthquake Activity

City Distance Mag. Time & Date
Minimum magnitude displayed is 2.5.

Coastal Water Temperatures

Place Temperature

Stations

Nearby Weather Stations

Station Location Temp. Windchill Dew Point Humidity Wind Precip. Elev Updated Type